sensor_id;sensor_type;location;lat;lon;timestamp;pressure;altitude;pressure_sealevel;temperature;humidity
27294;BME280;14785;52.556;13.430;2024-02-15T00:00:10;17296.25;;;11.46;100.00
27294;BME280;14785;52.556;13.430;2024-02-15T00:02:35;16223.72;;;11.29;100.00
27294;BME280;14785;52.556;13.430;2024-02-15T00:05:01;16939.19;;;11.33;100.00
27294;BME280;14785;52.556;13.430;2024-02-15T00:07:27;16464.91;;;11.19;100.00
27294;BME280;14785;52.556;13.430;2024-02-15T00:09:52;16741.75;;;11.24;100.00
27294;BME280;14785;52.556;13.430;2024-02-15T00:12:19;17201.91;;;11.34;100.00
27294;BME280;14785;52.556;13.430;2024-02-15T00:14:44;17442.13;;;11.38;100.00
27294;BME280;14785;52.556;13.430;2024-02-15T00:17:10;16132.06;;;11.17;100.00
27294;BME280;14785;52.556;13.430;2024-02-15T00:19:37;16505.13;;;11.23;100.00
27294;BME280;14785;52.556;13.430;2024-02-15T00:22:07;16435.34;;;11.15;100.00
27294;BME280;14785;52.556;13.430;2024-02-15T00:24:32;17249.38;;;11.10;100.00
27294;BME280;14785;52.556;13.430;2024-02-15T00:26:58;18193.50;;;11.31;100.00
27294;BME280;14785;52.556;13.430;2024-02-15T00:29:24;16634.44;;;11.12;100.00
27294;BME280;14785;52.556;13.430;2024-02-15T00:31:51;18107.94;;;11.48;100.00
27294;BME280;14785;52.556;13.430;2024-02-15T00:34:17;16981.66;;;11.45;100.00
27294;BME280;14785;52.556;13.430;2024-02-15T00:36:44;14643.94;;;11.25;100.00
27294;BME280;14785;52.556;13.430;2024-02-15T00:39:12;11728.81;;;10.81;100.00
27294;BME280;14785;52.556;13.430;2024-02-15T00:41:39;17261.94;;;11.35;100.00
27294;BME280;14785;52.556;13.430;2024-02-15T00:44:09;17575.22;;;11.49;100.00
27294;BME280;14785;52.556;13.430;2024-02-15T00:46:36;17080.41;;;11.45;100.00
27294;BME280;14785;52.556;13.430;2024-02-15T00:49:01;14947.81;;;11.16;100.00
27294;BME280;14785;52.556;13.430;2024-02-15T00:51:27;14274.34;;;11.00;100.00
27294;BME280;14785;52.556;13.430;2024-02-15T00:53:52;15345.84;;;11.09;100.00
27294;BME280;14785;52.556;13.430;2024-02-15T00:56:18;17870.78;;;11.46;100.00
27294;BME280;14785;52.556;13.430;2024-02-15T00:58:46;16143.84;;;11.22;100.00
27294;BME280;14785;52.556;13.430;2024-02-15T01:01:13;16922.16;;;11.46;100.00
27294;BME280;14785;52.556;13.430;2024-02-15T01:03:38;14419.94;;;11.22;100.00
27294;BME280;14785;52.556;13.430;2024-02-15T01:06:04;15882.94;;;11.37;100.00
27294;BME280;14785;52.556;13.430;2024-02-15T01:08:30;15110.94;;;11.04;100.00
27294;BME280;14785;52.556;13.430;2024-02-15T01:10:56;16801.22;;;11.14;100.00
27294;BME280;14785;52.556;13.430;2024-02-15T01:13:21;16532.94;;;11.02;100.00
27294;BME280;14785;52.556;13.430;2024-02-15T01:15:47;16766.03;;;11.09;100.00
27294;BME280;14785;52.556;13.430;2024-02-15T01:18:13;17728.13;;;10.96;100.00
27294;BME280;14785;52.556;13.430;2024-02-15T01:20:39;18449.16;;;11.01;100.00
27294;BME280;14785;52.556;13.430;2024-02-15T01:23:04;18238.53;;;10.92;100.00
27294;BME280;14785;52.556;13.430;2024-02-15T01:25:33;18978.19;;;10.98;100.00
27294;BME280;14785;52.556;13.430;2024-02-15T01:27:58;20217.28;;;11.19;100.00
27294;BME280;14785;52.556;13.430;2024-02-15T01:30:23;19687.94;;;11.22;100.00
27294;BME280;14785;52.556;13.430;2024-02-15T01:32:52;19271.91;;;11.38;100.00
27294;BME280;14785;52.556;13.430;2024-02-15T01:35:18;19487.69;;;11.61;100.00
27294;BME280;14785;52.556;13.430;2024-02-15T01:37:44;18053.97;;;11.50;100.00
27294;BME280;14785;52.556;13.430;2024-02-15T01:40:09;16109.91;;;11.12;100.00
27294;BME280;14785;52.556;13.430;2024-02-15T01:42:39;17804.13;;;11.32;100.00
27294;BME280;14785;52.556;13.430;2024-02-15T01:45:05;17981.91;;;11.19;100.00
27294;BME280;14785;52.556;13.430;2024-02-15T01:47:31;18518.91;;;11.24;100.00
27294;BME280;14785;52.556;13.430;2024-02-15T01:49:58;18866.00;;;11.37;100.00
27294;BME280;14785;52.556;13.430;2024-02-15T01:52:23;16554.28;;;11.04;100.00
27294;BME280;14785;52.556;13.430;2024-02-15T01:54:51;16270.03;;;11.00;100.00
27294;BME280;14785;52.556;13.430;2024-02-15T01:57:18;15668.63;;;10.93;100.00
27294;BME280;14785;52.556;13.430;2024-02-15T01:59:46;14265.22;;;11.05;100.00
27294;BME280;14785;52.556;13.430;2024-02-15T02:02:12;11567.91;;;10.80;100.00
27294;BME280;14785;52.556;13.430;2024-02-15T02:04:40;10834.94;;;10.96;100.00
27294;BME280;14785;52.556;13.430;2024-02-15T02:07:07;7046.78;;;10.85;100.00
27294;BME280;14785;52.556;13.430;2024-02-15T02:09:32;4621.53;;;11.03;100.00
27294;BME280;14785;52.556;13.430;2024-02-15T02:11:58;2501.06;;;11.07;100.00
27294;BME280;14785;52.556;13.430;2024-02-15T02:14:23;1738.31;;;11.05;100.00
27294;BME280;14785;52.556;13.430;2024-02-15T02:16:49;844.34;;;11.15;100.00
27294;BME280;14785;52.556;13.430;2024-02-15T02:19:14;175.44;;;11.39;100.00
27294;BME280;14785;52.556;13.430;2024-02-15T02:21:42;-153.09;;;11.19;100.00
27294;BME280;14785;52.556;13.430;2024-02-15T02:24:14;1571.84;;;11.43;100.00
27294;BME280;14785;52.556;13.430;2024-02-15T02:26:45;2764.13;;;11.39;100.00
27294;BME280;14785;52.556;13.430;2024-02-15T02:29:15;3610.91;;;11.49;100.00
27294;BME280;14785;52.556;13.430;2024-02-15T02:31:41;2635.09;;;11.00;100.00
27294;BME280;14785;52.556;13.430;2024-02-15T02:34:08;2762.16;;;11.06;100.00
27294;BME280;14785;52.556;13.430;2024-02-15T02:36:35;4152.97;;;11.30;100.00
27294;BME280;14785;52.556;13.430;2024-02-15T02:39:01;3722.63;;;11.20;100.00
27294;BME280;14785;52.556;13.430;2024-02-15T02:41:27;3145.84;;;11.21;100.00
27294;BME280;14785;52.556;13.430;2024-02-15T02:43:56;2412.75;;;11.00;100.00
27294;BME280;14785;52.556;13.430;2024-02-15T02:46:22;1588.28;;;11.02;100.00
27294;BME280;14785;52.556;13.430;2024-02-15T02:48:48;-1330.94;;;10.80;100.00
27294;BME280;14785;52.556;13.430;2024-02-15T02:51:15;-1659.25;;;11.23;100.00
27294;BME280;14785;52.556;13.430;2024-02-15T02:53:40;-3553.75;;;11.03;100.00
27294;BME280;14785;52.556;13.430;2024-02-15T02:56:06;-5204.13;;;10.91;100.00
27294;BME280;14785;52.556;13.430;2024-02-15T02:58:33;-6030.19;;;11.03;100.00
27294;BME280;14785;52.556;13.430;2024-02-15T03:00:59;-6409.13;;;11.31;100.00
27294;BME280;14785;52.556;13.430;2024-02-15T03:03:25;-7061.31;;;11.53;100.00
27294;BME280;14785;52.556;13.430;2024-02-15T03:05:52;-7385.00;;;11.15;100.00
27294;BME280;14785;52.556;13.430;2024-02-15T03:08:20;-6274.16;;;11.21;100.00
27294;BME280;14785;52.556;13.430;2024-02-15T03:10:47;-5541.59;;;11.21;100.00
27294;BME280;14785;52.556;13.430;2024-02-15T03:13:14;-4368.66;;;11.41;100.00
27294;BME280;14785;52.556;13.430;2024-02-15T03:15:40;-3240.03;;;11.33;100.00
27294;BME280;14785;52.556;13.430;2024-02-15T03:18:06;-3878.69;;;11.53;100.00
27294;BME280;14785;52.556;13.430;2024-02-15T03:20:33;-5144.34;;;11.22;100.00
27294;BME280;14785;52.556;13.430;2024-02-15T03:23:00;-5159.56;;;11.19;100.00
27294;BME280;14785;52.556;13.430;2024-02-15T03:25:27;-4019.44;;;11.27;100.00
27294;BME280;14785;52.556;13.430;2024-02-15T03:27:56;-2924.66;;;11.23;100.00
27294;BME280;14785;52.556;13.430;2024-02-15T03:30:23;-1922.88;;;11.34;100.00
27294;BME280;14785;52.556;13.430;2024-02-15T03:32:49;-1700.72;;;11.33;100.00
27294;BME280;14785;52.556;13.430;2024-02-15T03:35:17;-2093.03;;;11.16;100.00
27294;BME280;14785;52.556;13.430;2024-02-15T03:37:43;-1473.41;;;11.37;100.00
27294;BME280;14785;52.556;13.430;2024-02-15T03:40:09;-1217.59;;;11.35;100.00
27294;BME280;14785;52.556;13.430;2024-02-15T03:42:35;-297.31;;;11.66;100.00
27294;BME280;14785;52.556;13.430;2024-02-15T03:45:05;610.81;;;11.82;100.00
27294;BME280;14785;52.556;13.430;2024-02-15T03:47:32;1061.53;;;11.98;100.00
27294;BME280;14785;52.556;13.430;2024-02-15T03:49:59;372.72;;;11.78;100.00
27294;BME280;14785;52.556;13.430;2024-02-15T03:52:24;-835.09;;;11.78;100.00
27294;BME280;14785;52.556;13.430;2024-02-15T03:54:50;-356.75;;;11.72;100.00
27294;BME280;14785;52.556;13.430;2024-02-15T03:57:15;-1527.72;;;11.42;100.00
27294;BME280;14785;52.556;13.430;2024-02-15T03:59:42;-2770.00;;;11.31;100.00
27294;BME280;14785;52.556;13.430;2024-02-15T04:02:12;-2759.94;;;11.41;100.00
27294;BME280;14785;52.556;13.430;2024-02-15T04:04:39;-522.22;;;11.76;100.00
27294;BME280;14785;52.556;13.430;2024-02-15T04:07:07;-1597.69;;;11.64;100.00
27294;BME280;14785;52.556;13.430;2024-02-15T04:09:33;-2599.75;;;11.39;100.00
27294;BME280;14785;52.556;13.430;2024-02-15T04:12:02;-4277.22;;;11.21;100.00
27294;BME280;14785;52.556;13.430;2024-02-15T04:14:28;-4329.56;;;11.34;100.00
27294;BME280;14785;52.556;13.430;2024-02-15T04:16:54;-4639.88;;;11.44;100.00
27294;BME280;14785;52.556;13.430;2024-02-15T04:19:19;-6783.09;;;11.30;100.00
27294;BME280;14785;52.556;13.430;2024-02-15T04:21:48;-7671.09;;;11.38;100.00
27294;BME280;14785;52.556;13.430;2024-02-15T04:24:14;-9149.94;;;11.11;100.00
27294;BME280;14785;52.556;13.430;2024-02-15T04:26:39;-9944.78;;;11.20;100.00
27294;BME280;14785;52.556;13.430;2024-02-15T04:29:05;-10989.66;;;11.46;100.00
27294;BME280;14785;52.556;13.430;2024-02-15T04:31:34;-11997.19;;;11.33;100.00
27294;BME280;14785;52.556;13.430;2024-02-15T04:34:02;-13192.25;;;11.75;100.00
27294;BME280;14785;52.556;13.430;2024-02-15T04:36:28;-12089.16;;;11.58;100.00
27294;BME280;14785;52.556;13.430;2024-02-15T04:38:58;-12138.56;;;11.60;100.00
27294;BME280;14785;52.556;13.430;2024-02-15T04:41:24;-11479.81;;;11.81;100.00
27294;BME280;14785;52.556;13.430;2024-02-15T04:43:50;-10828.28;;;11.69;100.00
27294;BME280;14785;52.556;13.430;2024-02-15T04:46:17;-10320.91;;;11.54;100.00
27294;BME280;14785;52.556;13.430;2024-02-15T04:48:42;-11519.47;;;11.26;100.00
27294;BME280;14785;52.556;13.430;2024-02-15T04:51:09;-11292.25;;;11.22;100.00
27294;BME280;14785;52.556;13.430;2024-02-15T04:53:36;-11352.81;;;11.30;100.00
27294;BME280;14785;52.556;13.430;2024-02-15T04:56:04;-11797.03;;;11.37;100.00
27294;BME280;14785;52.556;13.430;2024-02-15T04:58:37;-11852.34;;;11.44;100.00
27294;BME280;14785;52.556;13.430;2024-02-15T05:01:12;-14133.94;;;11.09;100.00
27294;BME280;14785;52.556;13.430;2024-02-15T05:03:37;-15187.50;;;11.27;100.00
27294;BME280;14785;52.556;13.430;2024-02-15T05:06:03;-15416.91;;;11.40;100.00
27294;BME280;14785;52.556;13.430;2024-02-15T05:08:30;-13629.22;;;11.57;100.00
27294;BME280;14785;52.556;13.430;2024-02-15T05:10:57;-12747.06;;;11.50;100.00
27294;BME280;14785;52.556;13.430;2024-02-15T05:13:24;-12761.00;;;11.55;100.00
27294;BME280;14785;52.556;13.430;2024-02-15T05:15:50;-13107.28;;;11.48;100.00
27294;BME280;14785;52.556;13.430;2024-02-15T05:18:15;-11979.72;;;11.66;100.00
27294;BME280;14785;52.556;13.430;2024-02-15T05:20:42;-11075.47;;;11.67;100.00
27294;BME280;14785;52.556;13.430;2024-02-15T05:23:09;-11109.81;;;11.56;100.00
27294;BME280;14785;52.556;13.430;2024-02-15T05:25:35;-10037.06;;;11.88;100.00
27294;BME280;14785;52.556;13.430;2024-02-15T05:28:01;-10701.88;;;11.51;100.00
27294;BME280;14785;52.556;13.430;2024-02-15T05:30:28;-11126.78;;;11.50;100.00
27294;BME280;14785;52.556;13.430;2024-02-15T05:32:57;-11710.13;;;11.71;100.00
27294;BME280;14785;52.556;13.430;2024-02-15T05:35:23;-11845.22;;;11.63;100.00
27294;BME280;14785;52.556;13.430;2024-02-15T05:37:49;-12325.59;;;11.69;100.00
27294;BME280;14785;52.556;13.430;2024-02-15T05:40:18;-13763.81;;;11.36;100.00
27294;BME280;14785;52.556;13.430;2024-02-15T05:42:45;-12362.13;;;11.57;100.00
27294;BME280;14785;52.556;13.430;2024-02-15T05:47:46;-13433.69;;;11.45;100.00
27294;BME280;14785;52.556;13.430;2024-02-15T05:50:12;-14317.09;;;11.47;100.00
27294;BME280;14785;52.556;13.430;2024-02-15T05:52:40;-14976.19;;;11.48;100.00
27294;BME280;14785;52.556;13.430;2024-02-15T05:55:06;-15439.38;;;11.48;100.00
27294;BME280;14785;52.556;13.430;2024-02-15T05:57:31;-16442.41;;;11.37;100.00
27294;BME280;14785;52.556;13.430;2024-02-15T05:59:58;-15724.28;;;11.78;100.00
27294;BME280;14785;52.556;13.430;2024-02-15T06:02:27;-16744.06;;;11.40;100.00
27294;BME280;14785;52.556;13.430;2024-02-15T06:04:55;-17791.00;;;11.32;100.00
27294;BME280;14785;52.556;13.430;2024-02-15T06:07:27;-17535.56;;;11.77;100.00
27294;BME280;14785;52.556;13.430;2024-02-15T06:09:54;-17051.63;;;11.76;100.00
27294;BME280;14785;52.556;13.430;2024-02-15T06:12:19;-16300.78;;;11.99;100.00
27294;BME280;14785;52.556;13.430;2024-02-15T06:14:45;-15850.19;;;11.99;100.00
27294;BME280;14785;52.556;13.430;2024-02-15T06:17:12;-15020.78;;;12.09;100.00
27294;BME280;14785;52.556;13.430;2024-02-15T06:19:39;-13733.59;;;11.89;100.00
27294;BME280;14785;52.556;13.430;2024-02-15T06:22:06;-13077.13;;;11.79;100.00
27294;BME280;14785;52.556;13.430;2024-02-15T06:24:31;-12999.25;;;11.76;100.00
27294;BME280;14785;52.556;13.430;2024-02-15T06:26:56;-12584.19;;;12.02;100.00
27294;BME280;14785;52.556;13.430;2024-02-15T06:29:25;-12874.63;;;11.71;100.00
27294;BME280;14785;52.556;13.430;2024-02-15T06:32:10;-12581.13;;;11.72;100.00
27294;BME280;14785;52.556;13.430;2024-02-15T06:34:54;-14004.63;;;11.80;100.00
27294;BME280;14785;52.556;13.430;2024-02-15T06:37:38;-13601.47;;;11.86;100.00
27294;BME280;14785;52.556;13.430;2024-02-15T06:40:22;-14069.50;;;11.70;100.00
27294;BME280;14785;52.556;13.430;2024-02-15T06:42:48;-13781.91;;;11.74;100.00
27294;BME280;14785;52.556;13.430;2024-02-15T06:45:14;-13552.94;;;11.88;100.00
27294;BME280;14785;52.556;13.430;2024-02-15T06:47:43;-12827.44;;;12.07;100.00
27294;BME280;14785;52.556;13.430;2024-02-15T06:50:10;-13315.53;;;11.86;100.00
27294;BME280;14785;52.556;13.430;2024-02-15T06:52:38;-13745.31;;;11.71;100.00
27294;BME280;14785;52.556;13.430;2024-02-15T06:55:06;-13940.72;;;11.70;100.00
27294;BME280;14785;52.556;13.430;2024-02-15T06:57:33;-11201.88;;;12.15;100.00
27294;BME280;14785;52.556;13.430;2024-02-15T07:00:02;-10251.34;;;12.24;100.00
27294;BME280;14785;52.556;13.430;2024-02-15T07:02:28;-10499.53;;;12.27;100.00
27294;BME280;14785;52.556;13.430;2024-02-15T07:04:54;-10635.41;;;12.21;100.00
27294;BME280;14785;52.556;13.430;2024-02-15T07:07:19;-12812.06;;;11.94;100.00
27294;BME280;14785;52.556;13.430;2024-02-15T07:09:44;-12091.66;;;12.01;100.00
27294;BME280;14785;52.556;13.430;2024-02-15T07:12:10;-12040.44;;;12.03;100.00
27294;BME280;14785;52.556;13.430;2024-02-15T07:14:37;-12189.06;;;11.98;100.00
27294;BME280;14785;52.556;13.430;2024-02-15T07:17:03;-12058.31;;;12.02;100.00
27294;BME280;14785;52.556;13.430;2024-02-15T07:19:29;-11521.53;;;11.99;100.00
27294;BME280;14785;52.556;13.430;2024-02-15T07:22:00;-11184.09;;;12.01;100.00
27294;BME280;14785;52.556;13.430;2024-02-15T07:24:27;-11891.47;;;11.77;100.00
27294;BME280;14785;52.556;13.430;2024-02-15T07:26:52;-11106.25;;;11.98;100.00
27294;BME280;14785;52.556;13.430;2024-02-15T07:29:21;-10555.16;;;12.03;100.00
27294;BME280;14785;52.556;13.430;2024-02-15T07:31:49;-10698.41;;;11.95;100.00
27294;BME280;14785;52.556;13.430;2024-02-15T07:34:14;-10558.66;;;12.09;100.00
27294;BME280;14785;52.556;13.430;2024-02-15T07:36:42;-10872.22;;;12.02;100.00
27294;BME280;14785;52.556;13.430;2024-02-15T07:39:10;-11178.75;;;12.15;100.00
27294;BME280;14785;52.556;13.430;2024-02-15T07:41:41;-10985.72;;;12.18;100.00
27294;BME280;14785;52.556;13.430;2024-02-15T07:44:06;-11556.09;;;11.90;100.00
27294;BME280;14785;52.556;13.430;2024-02-15T07:46:32;-10210.66;;;12.28;100.00
27294;BME280;14785;52.556;13.430;2024-02-15T07:48:59;-10281.09;;;12.33;100.00
27294;BME280;14785;52.556;13.430;2024-02-15T07:51:25;-10378.09;;;12.26;100.00
27294;BME280;14785;52.556;13.430;2024-02-15T07:53:51;-11273.25;;;12.10;100.00
27294;BME280;14785;52.556;13.430;2024-02-15T07:56:17;-11392.06;;;12.11;100.00
27294;BME280;14785;52.556;13.430;2024-02-15T07:58:46;-11573.78;;;12.33;100.00
27294;BME280;14785;52.556;13.430;2024-02-15T08:01:14;-9616.19;;;12.77;100.00
27294;BME280;14785;52.556;13.430;2024-02-15T08:03:40;-12765.19;;;12.18;100.00
27294;BME280;14785;52.556;13.430;2024-02-15T08:06:12;-11667.19;;;12.66;100.00
27294;BME280;14785;52.556;13.430;2024-02-15T08:08:42;-13090.97;;;12.23;100.00
27294;BME280;14785;52.556;13.430;2024-02-15T08:11:08;-12179.75;;;12.32;100.00
27294;BME280;14785;52.556;13.430;2024-02-15T08:16:06;-12198.69;;;12.51;100.00
27294;BME280;14785;52.556;13.430;2024-02-15T08:18:33;-11176.19;;;12.94;100.00
27294;BME280;14785;52.556;13.430;2024-02-15T08:21:01;-12927.38;;;12.57;100.00
27294;BME280;14785;52.556;13.430;2024-02-15T08:23:29;-12976.03;;;12.69;100.00
27294;BME280;14785;52.556;13.430;2024-02-15T08:25:54;-13078.47;;;12.65;100.00
27294;BME280;14785;52.556;13.430;2024-02-15T08:28:20;-13640.16;;;12.36;100.00
27294;BME280;14785;52.556;13.430;2024-02-15T08:30:47;-12369.31;;;12.67;100.00
27294;BME280;14785;52.556;13.430;2024-02-15T08:33:14;-11584.06;;;12.63;100.00
27294;BME280;14785;52.556;13.430;2024-02-15T08:35:40;-11459.16;;;12.57;100.00
27294;BME280;14785;52.556;13.430;2024-02-15T08:38:06;-10496.44;;;12.74;100.00
27294;BME280;14785;52.556;13.430;2024-02-15T08:40:33;-10584.13;;;12.90;100.00
27294;BME280;14785;52.556;13.430;2024-02-15T08:43:00;-11855.09;;;12.48;100.00
27294;BME280;14785;52.556;13.430;2024-02-15T08:45:26;-10997.09;;;12.56;100.00
27294;BME280;14785;52.556;13.430;2024-02-15T08:47:54;-10934.66;;;12.53;100.00
27294;BME280;14785;52.556;13.430;2024-02-15T08:50:19;-10383.41;;;12.61;100.00
27294;BME280;14785;52.556;13.430;2024-02-15T08:52:48;-8741.72;;;13.08;100.00
27294;BME280;14785;52.556;13.430;2024-02-15T08:55:15;-9864.16;;;13.13;100.00
27294;BME280;14785;52.556;13.430;2024-02-15T08:57:47;-11152.13;;;12.89;100.00
27294;BME280;14785;52.556;13.430;2024-02-15T09:00:13;-10742.63;;;12.96;100.00
27294;BME280;14785;52.556;13.430;2024-02-15T09:02:45;-10187.53;;;12.98;100.00
27294;BME280;14785;52.556;13.430;2024-02-15T09:05:12;-11082.41;;;12.89;100.00
27294;BME280;14785;52.556;13.430;2024-02-15T09:07:41;-10579.88;;;12.96;100.00
27294;BME280;14785;52.556;13.430;2024-02-15T09:10:11;-10111.28;;;13.24;100.00
27294;BME280;14785;52.556;13.430;2024-02-15T09:12:37;-11189.34;;;12.95;100.00
27294;BME280;14785;52.556;13.430;2024-02-15T09:15:09;-9197.56;;;13.54;100.00
27294;BME280;14785;52.556;13.430;2024-02-15T09:17:38;-12278.56;;;12.93;100.00
27294;BME280;14785;52.556;13.430;2024-02-15T09:20:08;-10963.53;;;13.04;100.00
27294;BME280;14785;52.556;13.430;2024-02-15T09:22:34;-10092.38;;;13.01;100.00
27294;BME280;14785;52.556;13.430;2024-02-15T09:25:02;-8366.06;;;13.23;100.00
27294;BME280;14785;52.556;13.430;2024-02-15T09:27:27;-7873.28;;;13.57;100.00
27294;BME280;14785;52.556;13.430;2024-02-15T09:29:53;-9736.69;;;12.89;100.00
27294;BME280;14785;52.556;13.430;2024-02-15T09:32:18;-8178.81;;;13.14;100.00
27294;BME280;14785;52.556;13.430;2024-02-15T09:34:43;-8836.53;;;12.81;100.00
27294;BME280;14785;52.556;13.430;2024-02-15T09:37:09;-7167.63;;;12.88;100.00
27294;BME280;14785;52.556;13.430;2024-02-15T09:39:36;-6310.81;;;13.07;100.00
27294;BME280;14785;52.556;13.430;2024-02-15T09:42:03;-5494.16;;;13.20;100.00
27294;BME280;14785;52.556;13.430;2024-02-15T09:44:29;-6328.53;;;13.03;100.00
27294;BME280;14785;52.556;13.430;2024-02-15T09:47:05;-5890.47;;;12.92;100.00
27294;BME280;14785;52.556;13.430;2024-02-15T09:49:37;-5388.56;;;12.91;100.00
27294;BME280;14785;52.556;13.430;2024-02-15T09:52:06;-4033.84;;;13.14;100.00
27294;BME280;14785;52.556;13.430;2024-02-15T09:54:33;-3118.56;;;13.54;100.00
27294;BME280;14785;52.556;13.430;2024-02-15T09:57:01;-4908.75;;;13.13;100.00
27294;BME280;14785;52.556;13.430;2024-02-15T09:59:29;-4836.03;;;13.09;100.00
27294;BME280;14785;52.556;13.430;2024-02-15T10:01:57;-4602.72;;;13.03;100.00
27294;BME280;14785;52.556;13.430;2024-02-15T10:04:23;-4168.19;;;13.08;100.00
27294;BME280;14785;52.556;13.430;2024-02-15T10:06:51;-3770.19;;;13.24;100.00
27294;BME280;14785;52.556;13.430;2024-02-15T10:09:32;-4111.91;;;13.22;100.00
27294;BME280;14785;52.556;13.430;2024-02-15T10:12:01;-3444.25;;;13.33;100.00
27294;BME280;14785;52.556;13.430;2024-02-15T10:14:29;-3797.06;;;13.45;100.00
27294;BME280;14785;52.556;13.430;2024-02-15T10:16:55;-4826.72;;;13.26;100.00
27294;BME280;14785;52.556;13.430;2024-02-15T10:19:21;-3263.16;;;13.40;100.00
27294;BME280;14785;52.556;13.430;2024-02-15T10:21:54;-4150.97;;;13.26;100.00
27294;BME280;14785;52.556;13.430;2024-02-15T10:24:24;-2138.91;;;13.56;100.00
27294;BME280;14785;52.556;13.430;2024-02-15T10:26:50;-2289.47;;;13.67;100.00
27294;BME280;14785;52.556;13.430;2024-02-15T10:29:16;-2337.06;;;14.10;100.00
27294;BME280;14785;52.556;13.430;2024-02-15T10:31:53;-4045.78;;;13.47;100.00
27294;BME280;14785;52.556;13.430;2024-02-15T10:34:21;-1755.59;;;13.86;100.00
27294;BME280;14785;52.556;13.430;2024-02-15T10:36:47;-1906.47;;;14.15;100.00
27294;BME280;14785;52.556;13.430;2024-02-15T10:39:19;-3872.88;;;14.16;100.00
27294;BME280;14785;52.556;13.430;2024-02-15T10:41:50;-3969.13;;;13.68;100.00
27294;BME280;14785;52.556;13.430;2024-02-15T10:44:20;-2927.00;;;13.60;100.00
27294;BME280;14785;52.556;13.430;2024-02-15T10:46:53;-2146.63;;;13.53;100.00
27294;BME280;14785;52.556;13.430;2024-02-15T10:49:23;-437.88;;;13.62;100.00
27294;BME280;14785;52.556;13.430;2024-02-15T10:51:57;889.09;;;14.03;100.00
27294;BME280;14785;52.556;13.430;2024-02-15T10:57:44;944.50;;;14.31;100.00
27294;BME280;14785;52.556;13.430;2024-02-15T11:00:15;-1325.09;;;14.07;100.00
27294;BME280;14785;52.556;13.430;2024-02-15T11:02:59;-775.00;;;13.82;100.00
27294;BME280;14785;52.556;13.430;2024-02-15T11:05:33;2435.19;;;14.16;100.00
27294;BME280;14785;52.556;13.430;2024-02-15T11:08:08;1495.66;;;13.75;100.00
27294;BME280;14785;52.556;13.430;2024-02-15T11:10:39;4197.59;;;13.57;100.00
27294;BME280;14785;52.556;13.430;2024-02-15T11:13:09;7195.09;;;13.87;100.00
27294;BME280;14785;52.556;13.430;2024-02-15T11:18:00;9143.19;;;14.31;100.00
27294;BME280;14785;52.556;13.430;2024-02-15T11:23:04;8147.63;;;14.61;100.00
27294;BME280;14785;52.556;13.430;2024-02-15T11:25:33;4505.88;;;14.35;100.00
27294;BME280;14785;52.556;13.430;2024-02-15T11:30:54;4153.34;;;14.49;100.00
27294;BME280;14785;52.556;13.430;2024-02-15T11:33:34;4592.44;;;14.72;100.00
27294;BME280;14785;52.556;13.430;2024-02-15T11:38:30;2772.13;;;14.44;100.00
27294;BME280;14785;52.556;13.430;2024-02-15T11:46:12;1805.25;;;14.47;100.00
27294;BME280;14785;52.556;13.430;2024-02-15T11:48:38;2618.09;;;14.33;100.00
27294;BME280;14785;52.556;13.430;2024-02-15T11:51:07;4206.81;;;14.66;100.00
27294;BME280;14785;52.556;13.430;2024-02-15T11:53:36;2271.94;;;14.74;100.00
27294;BME280;14785;52.556;13.430;2024-02-15T11:56:03;2852.22;;;14.36;100.00
27294;BME280;14785;52.556;13.430;2024-02-15T11:58:30;3740.56;;;14.25;100.00
27294;BME280;14785;52.556;13.430;2024-02-15T12:01:11;5345.03;;;14.51;100.00
27294;BME280;14785;52.556;13.430;2024-02-15T12:03:56;4960.34;;;14.55;100.00
27294;BME280;14785;52.556;13.430;2024-02-15T12:06:40;5536.50;;;14.40;100.00
27294;BME280;14785;52.556;13.430;2024-02-15T12:09:24;5866.63;;;14.37;100.00
27294;BME280;14785;52.556;13.430;2024-02-15T12:12:11;5921.81;;;14.42;100.00
27294;BME280;14785;52.556;13.430;2024-02-15T12:15:02;5577.72;;;14.36;100.00
27294;BME280;14785;52.556;13.430;2024-02-15T12:17:47;6983.41;;;14.40;100.00
27294;BME280;14785;52.556;13.430;2024-02-15T12:20:31;7043.53;;;14.42;100.00
27294;BME280;14785;52.556;13.430;2024-02-15T12:22:58;6754.13;;;14.17;100.00
27294;BME280;14785;52.556;13.430;2024-02-15T12:25:26;7682.28;;;14.11;100.00
27294;BME280;14785;52.556;13.430;2024-02-15T12:27:56;8645.28;;;14.11;100.00
27294;BME280;14785;52.556;13.430;2024-02-15T12:30:22;9952.50;;;14.42;100.00
27294;BME280;14785;52.556;13.430;2024-02-15T12:32:48;10825.34;;;14.82;100.00
27294;BME280;14785;52.556;13.430;2024-02-15T12:35:16;7284.78;;;14.74;100.00
27294;BME280;14785;52.556;13.430;2024-02-15T12:37:45;5383.75;;;14.73;100.00
27294;BME280;14785;52.556;13.430;2024-02-15T12:40:17;6537.38;;;14.75;100.00
27294;BME280;14785;52.556;13.430;2024-02-15T12:42:46;7660.41;;;15.15;100.00
27294;BME280;14785;52.556;13.430;2024-02-15T12:45:21;4811.06;;;15.56;100.00
27294;BME280;14785;52.556;13.430;2024-02-15T12:47:49;2036.78;;;15.57;100.00
27294;BME280;14785;52.556;13.430;2024-02-15T12:50:16;584.59;;;15.77;100.00
27294;BME280;14785;52.556;13.430;2024-02-15T12:52:48;-2289.94;;;15.15;100.00
27294;BME280;14785;52.556;13.430;2024-02-15T12:55:17;729.03;;;15.28;100.00
27294;BME280;14785;52.556;13.430;2024-02-15T12:57:47;1302.44;;;15.55;100.00
27294;BME280;14785;52.556;13.430;2024-02-15T13:00:26;406.84;;;15.47;100.00
27294;BME280;14785;52.556;13.430;2024-02-15T13:02:54;473.91;;;15.21;100.00
27294;BME280;14785;52.556;13.430;2024-02-15T13:05:21;861.00;;;15.04;100.00